createdAt,value
2019-02-15T00:01:18.448Z,5.77
2019-02-15T00:06:14.255Z,5.80
2019-02-15T00:11:09.982Z,5.10
2019-02-15T00:16:05.685Z,5.63
2019-02-15T00:21:15.037Z,5.50
2019-02-15T00:26:10.739Z,6.00
2019-02-15T00:31:07.859Z,5.77
2019-02-15T00:36:03.567Z,5.53
2019-02-15T00:40:59.333Z,6.03
2019-02-15T00:45:59.631Z,6.03
2019-02-15T00:51:16.275Z,6.20
2019-02-15T00:56:19.765Z,6.37
2019-02-15T01:01:23.342Z,6.17
2019-02-15T01:06:38.750Z,5.57
2019-02-15T01:11:39.233Z,5.87
2019-02-15T01:16:34.913Z,6.00
2019-02-15T01:21:30.870Z,6.17
2019-02-15T01:26:31.380Z,5.60
2019-02-15T01:31:28.963Z,6.53
2019-02-15T01:36:29.321Z,6.07
2019-02-15T01:41:41.745Z,5.90
2019-02-15T01:46:39.376Z,5.87
2019-02-15T01:51:35.124Z,6.43
2019-02-15T01:56:30.833Z,6.57
2019-02-15T02:01:27.126Z,6.77
2019-02-15T02:06:22.893Z,6.77
2019-02-15T02:11:18.715Z,6.27
2019-02-15T02:16:14.586Z,5.93
2019-02-15T02:21:10.259Z,6.40
2019-02-15T02:26:06.075Z,6.80
2019-02-15T02:31:01.795Z,6.60
2019-02-15T02:35:57.535Z,6.83
2019-02-15T02:40:53.223Z,6.57
2019-02-15T02:45:48.922Z,6.50
2019-02-15T02:50:44.883Z,6.27
2019-02-15T02:55:40.653Z,6.27
2019-02-15T03:00:36.376Z,6.63
2019-02-15T03:05:32.068Z,7.00
2019-02-15T03:10:27.861Z,6.87
2019-02-15T03:15:23.575Z,6.73
2019-02-15T03:20:30.491Z,6.73
2019-02-15T03:25:16.905Z,7.13
2019-02-15T03:30:12.603Z,6.70
2019-02-15T03:35:08.424Z,6.50
2019-02-15T03:40:07.524Z,6.47
2019-02-15T03:45:04.557Z,6.97
2019-02-15T03:50:00.341Z,7.00
2019-02-15T03:54:56.117Z,7.53
2019-02-15T03:59:51.896Z,6.93
2019-02-15T04:04:47.607Z,7.47
2019-02-15T04:09:43.579Z,7.20
2019-02-15T04:14:39.297Z,7.27
2019-02-15T04:19:35.005Z,6.83
2019-02-15T04:24:30.707Z,7.30
2019-02-15T04:29:26.439Z,7.00
2019-02-15T04:34:22.189Z,7.60
2019-02-15T04:39:18.016Z,7.63
2019-02-15T04:44:13.691Z,7.07
2019-02-15T04:49:09.413Z,8.17
2019-02-15T04:54:05.142Z,7.57
2019-02-15T04:59:02.117Z,8.17
2019-02-15T05:03:57.842Z,7.77
2019-02-15T05:08:53.604Z,7.53
2019-02-15T05:13:49.305Z,7.30
2019-02-15T05:18:45.068Z,7.87
2019-02-15T05:23:40.792Z,7.23
2019-02-15T05:28:36.480Z,7.87
2019-02-15T05:33:32.214Z,7.23
2019-02-15T05:38:28.005Z,7.50
2019-02-15T05:43:23.974Z,8.17
2019-02-15T05:48:19.767Z,8.47
2019-02-15T05:53:15.500Z,8.13
2019-02-15T05:58:11.206Z,7.67
2019-02-15T06:03:07.175Z,7.93
2019-02-15T06:08:02.876Z,7.60
2019-02-15T06:12:58.582Z,8.23
2019-02-15T06:17:54.292Z,7.67
2019-02-15T06:22:50.082Z,7.60
2019-02-15T06:27:47.768Z,8.17
2019-02-15T06:32:43.476Z,7.73
2019-02-15T06:37:39.183Z,7.37
2019-02-15T06:42:34.884Z,7.47
2019-02-15T06:47:30.587Z,11.37
2019-02-15T06:52:26.347Z,23.07
2019-02-15T06:57:22.089Z,35.67
2019-02-15T07:02:31.433Z,41.77
2019-02-15T07:07:27.135Z,36.80
2019-02-15T07:12:22.873Z,25.47
2019-02-15T07:17:18.589Z,17.70
2019-02-15T07:22:14.370Z,13.00
2019-02-15T07:27:10.072Z,11.37
2019-02-15T07:32:05.778Z,11.50
2019-02-15T07:37:01.489Z,12.70
2019-02-15T07:41:57.177Z,11.23
2019-02-15T07:46:53.135Z,10.23
2019-02-15T07:51:48.821Z,12.17
2019-02-15T07:56:44.544Z,13.50
2019-02-15T08:01:40.274Z,13.77
2019-02-15T08:06:35.965Z,13.67
2019-02-15T08:11:31.675Z,14.83
2019-02-15T08:16:27.400Z,27.57
2019-02-15T08:21:23.081Z,19.77
2019-02-15T08:26:18.808Z,13.90
2019-02-15T08:31:14.499Z,13.33
2019-02-15T08:36:10.223Z,13.33
2019-02-15T08:41:05.939Z,12.20
2019-02-15T08:46:03.363Z,12.63
2019-02-15T08:50:59.423Z,12.73
2019-02-15T08:55:55.171Z,12.75
2019-02-15T09:00:50.935Z,11.43
2019-02-15T09:05:46.711Z,13.78
2019-02-15T09:10:42.433Z,13.22
2019-02-15T09:15:38.159Z,15.53
2019-02-15T09:20:33.871Z,13.75
2019-02-15T09:25:29.581Z,12.30
2019-02-15T09:30:25.293Z,12.45
2019-02-15T09:35:20.966Z,12.73
2019-02-15T09:40:16.661Z,12.37
2019-02-15T09:45:12.348Z,13.10
2019-02-15T09:50:09.744Z,13.50
2019-02-15T09:55:06.217Z,12.95
2019-02-15T10:00:02.038Z,14.23
2019-02-15T10:04:57.740Z,13.93
2019-02-15T10:09:53.451Z,14.78
2019-02-15T10:14:49.177Z,14.20
2019-02-15T10:19:45.165Z,14.70
2019-02-15T10:24:40.870Z,14.58
2019-02-15T10:29:36.577Z,15.30
2019-02-15T10:34:32.284Z,14.70
2019-02-15T10:39:28.009Z,14.70
2019-02-15T10:44:23.836Z,15.00
2019-02-15T10:49:19.639Z,14.93
2019-02-15T10:54:15.367Z,14.50
2019-02-15T10:59:11.275Z,14.25
2019-02-15T11:04:07.082Z,14.50
2019-02-15T11:09:04.303Z,14.07
2019-02-15T11:14:00.306Z,13.55
2019-02-15T11:18:56.105Z,14.05
2019-02-15T11:23:51.799Z,13.70
2019-02-15T11:28:47.515Z,10.15
2019-02-15T11:33:43.221Z,7.85
2019-02-15T11:38:38.939Z,8.18
2019-02-15T11:43:34.657Z,8.13
2019-02-15T11:48:30.346Z,7.00
2019-02-15T11:53:26.083Z,6.60
2019-02-15T11:58:21.796Z,6.58
2019-02-15T12:03:17.499Z,6.85
2019-02-15T12:08:13.449Z,6.58
2019-02-15T12:13:09.177Z,5.85
2019-02-15T12:18:04.863Z,6.92
2019-02-15T12:23:00.562Z,6.78
2019-02-15T12:27:56.269Z,6.75
2019-02-15T12:32:51.985Z,5.70
2019-02-15T12:37:47.718Z,5.80
2019-02-15T12:42:43.432Z,5.40
2019-02-15T12:47:39.147Z,5.92
2019-02-15T12:52:35.103Z,6.00
2019-02-15T12:57:30.849Z,5.85
2019-02-15T13:02:26.537Z,5.97
2019-02-15T13:07:22.239Z,5.42
2019-02-15T13:12:18.187Z,5.40
2019-02-15T13:17:13.889Z,5.75
2019-02-15T13:22:10.437Z,5.60
2019-02-15T13:27:06.170Z,4.65
2019-02-15T13:32:02.090Z,4.80
2019-02-15T13:36:57.823Z,4.80
2019-02-15T13:41:53.507Z,4.80
2019-02-15T13:46:49.201Z,4.97
2019-02-15T13:51:45.042Z,5.03
2019-02-15T13:56:40.790Z,4.42
2019-02-15T14:01:36.595Z,5.20
2019-02-15T14:06:32.401Z,3.50
2019-02-15T14:11:28.093Z,4.03
2019-02-15T14:16:23.797Z,3.70
2019-02-15T14:21:19.503Z,3.77
2019-02-15T14:26:15.194Z,3.80
2019-02-15T14:31:10.906Z,3.25
2019-02-15T14:36:08.348Z,3.40
2019-02-15T14:41:04.451Z,3.20
2019-02-15T14:46:00.229Z,3.20
2019-02-15T14:50:56.221Z,3.45
2019-02-15T14:55:51.926Z,3.25
2019-02-15T15:00:47.792Z,4.03
2019-02-15T15:05:43.595Z,5.03
2019-02-15T15:10:39.317Z,4.83
2019-02-15T15:15:35.339Z,4.40
2019-02-15T15:20:31.072Z,4.67
2019-02-15T15:25:26.747Z,5.22
2019-02-15T15:30:22.737Z,5.08
2019-02-15T15:35:18.448Z,5.42
2019-02-15T15:40:15.152Z,5.63
2019-02-15T15:45:11.139Z,5.30
2019-02-15T15:50:07.885Z,5.10
2019-02-15T15:55:04.193Z,5.37
2019-02-15T15:59:59.916Z,4.93
2019-02-15T16:04:55.723Z,4.33
2019-02-15T16:09:51.641Z,3.97
2019-02-15T16:14:47.634Z,4.87
2019-02-15T16:19:49.187Z,5.30
2019-02-15T16:24:41.034Z,5.37
2019-02-15T16:29:36.819Z,5.57
2019-02-15T16:34:32.573Z,4.43
2019-02-15T16:39:28.349Z,4.27
2019-02-15T16:44:24.243Z,3.90
2019-02-15T16:49:19.933Z,3.60
2019-02-15T16:54:16.183Z,3.40
2019-02-15T16:59:11.862Z,3.60
2019-02-15T17:04:07.735Z,3.30
2019-02-15T17:09:05.844Z,3.43
2019-02-15T17:14:02.071Z,3.10
2019-02-15T17:18:57.746Z,2.90
2019-02-15T17:23:53.611Z,3.10
2019-02-15T17:28:49.291Z,4.50
2019-02-15T17:33:45.377Z,6.07
2019-02-15T17:38:41.050Z,9.60
2019-02-15T17:43:43.408Z,7.77
2019-02-15T17:48:39.175Z,8.87
2019-02-15T17:53:35.018Z,11.97
2019-02-15T17:58:30.767Z,9.00
2019-02-15T18:03:26.761Z,8.23
2019-02-15T18:08:22.519Z,6.43
2019-02-15T18:13:18.405Z,5.00
2019-02-15T18:18:14.071Z,6.10
2019-02-15T18:23:10.094Z,6.53
2019-02-15T18:28:05.871Z,7.87
2019-02-15T18:33:01.749Z,6.57
2019-02-15T18:37:57.459Z,4.40
2019-02-15T18:42:53.471Z,5.40
2019-02-15T18:47:50.392Z,6.10
2019-02-15T18:52:46.407Z,5.60
2019-02-15T18:57:42.209Z,5.30
2019-02-15T19:02:38.146Z,5.07
2019-02-15T19:07:33.883Z,6.90
2019-02-15T19:12:30.283Z,4.70
2019-02-15T19:17:26.058Z,3.97
2019-02-15T19:22:22.073Z,3.87
2019-02-15T19:27:17.748Z,3.10
2019-02-15T19:32:13.957Z,3.63
2019-02-15T19:37:09.824Z,3.33
2019-02-15T19:42:08.460Z,4.63
2019-02-15T19:47:04.316Z,3.97
2019-02-15T19:52:00.575Z,3.53
2019-02-15T19:56:56.453Z,5.37
2019-02-15T20:01:52.228Z,4.73
2019-02-15T20:06:48.096Z,6.47
2019-02-15T20:11:43.798Z,7.10
2019-02-15T20:16:39.770Z,9.27
2019-02-15T20:21:35.479Z,5.67
2019-02-15T20:26:31.643Z,4.00
2019-02-15T20:31:27.570Z,3.83
2019-02-15T20:41:25.523Z,3.63
2019-02-15T20:46:21.338Z,4.47
2019-02-15T20:56:26.105Z,3.33
2019-02-15T21:01:21.798Z,3.90
2019-02-15T21:06:17.692Z,4.17
2019-02-15T21:11:13.557Z,3.90
2019-02-15T21:16:09.580Z,4.73
2019-02-15T21:21:05.281Z,4.73
2019-02-15T21:26:03.889Z,4.33
2019-02-15T21:30:59.580Z,4.20
2019-02-15T21:35:55.319Z,4.67
2019-02-15T21:40:51.000Z,3.87
2019-02-15T21:45:46.883Z,3.53
2019-02-15T21:50:42.587Z,4.10
2019-02-15T21:55:38.547Z,3.97
2019-02-15T22:00:34.402Z,4.30
2019-02-15T22:05:30.379Z,4.53
2019-02-15T22:10:26.069Z,3.83
2019-02-15T22:15:21.918Z,4.20
2019-02-15T22:20:25.953Z,4.30
2019-02-15T22:25:15.482Z,3.80
2019-02-15T22:30:18.261Z,4.53
2019-02-15T22:35:14.051Z,4.50
2019-02-15T22:40:15.319Z,4.43
2019-02-15T22:45:11.246Z,5.53
2019-02-15T22:50:07.717Z,4.73
2019-02-15T22:55:04.090Z,4.60
2019-02-15T23:00:01.360Z,5.07
2019-02-15T23:04:57.937Z,4.73
2019-02-15T23:09:53.927Z,4.70
2019-02-15T23:14:49.612Z,5.83
2019-02-15T23:19:45.715Z,4.70
2019-02-15T23:24:41.390Z,4.83
2019-02-15T23:29:37.255Z,5.00
2019-02-15T23:34:32.931Z,4.77
2019-02-15T23:39:28.839Z,4.87
2019-02-15T23:44:24.497Z,5.20
2019-02-15T23:49:20.481Z,4.53
2019-02-15T23:54:16.159Z,4.90
2019-02-15T23:59:12.285Z,5.00
